Time;durP1;ratioP1;P1;durP2;ratioP2;P2;SDS_P1;SDS_P2;PMS_P1;PMS_P2;Temp;Humidity;BMP_temperature;BMP_pressure;BME280_temperature;BME280_humidity;BME280_pressure;Samples;Min_cycle;Max_cycle;Signal;HPM_P1;HPM_P2
2022/11/13 00:02:22;;;;;;;;;73.50;57.75;;;;;;;;5079145;27;45220;-74
2022/11/13 00:04:47;;;;;;;;;68.50;54.00;;;;;;;;5081535;27;45355;-75
2022/11/13 00:07:13;;;;;;;;;75.25;58.00;;;;;;;;5083151;27;47213;-74
2022/11/13 00:09:38;;;;;;;;;75.00;56.50;;;;;;;;5081554;27;45338;-74
2022/11/13 00:12:03;;;;;;;;;73.75;55.50;;;;;;;;5079790;27;45395;-74
2022/11/13 00:14:28;;;;;;;;;73.25;57.25;;;;;;;;5083186;27;46081;-74
2022/11/13 00:16:53;;;;;;;;;69.25;54.50;;;;;;;;5079676;27;45686;-74
2022/11/13 00:19:19;;;;;;;;;71.50;56.00;;;;;;;;5081088;27;45208;-74
2022/11/13 00:21:44;;;;;;;;;70.75;55.50;;;;;;;;5085076;27;45272;-74
2022/11/13 00:24:09;;;;;;;;;70.25;55.25;;;;;;;;5080904;27;45822;-75
2022/11/13 00:26:34;;;;;;;;;63.50;50.00;;;;;;;;5080822;27;45514;-74
2022/11/13 00:29:01;;;;;;;;;73.50;55.00;;;;;;;;5083743;27;45208;-75
2022/11/13 00:31:26;;;;;;;;;67.25;54.00;;;;;;;;5082847;27;45279;-74
2022/11/13 00:33:52;;;;;;;;;67.50;54.00;;;;;;;;5082947;27;45231;-77
2022/11/13 00:36:18;;;;;;;;;63.25;49.75;;;;;;;;5086514;27;46231;-77
2022/11/13 00:38:44;;;;;;;;;69.00;53.50;;;;;;;;5080347;27;46855;-74
2022/11/13 00:41:09;;;;;;;;;67.50;50.50;;;;;;;;5084329;27;45255;-75
2022/11/13 00:43:34;;;;;;;;;67.75;52.00;;;;;;;;5081646;27;45318;-74
2022/11/13 00:46:00;;;;;;;;;68.75;52.75;;;;;;;;5083817;27;45303;-74
2022/11/13 00:48:25;;;;;;;;;68.25;54.00;;;;;;;;5088380;27;45251;-74
2022/11/13 00:50:50;;;;;;;;;65.00;52.50;;;;;;;;5090812;27;45315;-74
2022/11/13 00:53:15;;;;;;;;;62.50;49.00;;;;;;;;5081612;27;45423;-74
2022/11/13 00:55:42;;;;;;;;;60.25;48.50;;;;;;;;5084668;27;45436;-74
2022/11/13 00:58:07;;;;;;;;;64.25;49.00;;;;;;;;5080484;27;45516;-74
2022/11/13 01:00:32;;;;;;;;;60.50;48.25;;;;;;;;5084234;27;46103;-74
2022/11/13 01:02:58;;;;;;;;;62.00;47.25;;;;;;;;5081646;27;45600;-75
2022/11/13 01:05:24;;;;;;;;;62.00;48.50;;;;;;;;5083979;27;45536;-74
2022/11/13 01:07:49;;;;;;;;;64.00;46.25;;;;;;;;5081583;27;45228;-75
2022/11/13 01:10:14;;;;;;;;;56.00;46.00;;;;;;;;5084997;27;45448;-75
2022/11/13 01:12:39;;;;;;;;;52.00;42.75;;;;;;;;5081597;27;45423;-74
2022/11/13 01:15:05;;;;;;;;;59.00;46.50;;;;;;;;5085367;27;46345;-74
2022/11/13 01:17:30;;;;;;;;;57.75;46.75;;;;;;;;5081770;27;45275;-74
2022/11/13 01:19:55;;;;;;;;;67.00;51.00;;;;;;;;5084008;27;45293;-75
2022/11/13 01:22:21;;;;;;;;;66.25;50.50;;;;;;;;5090243;27;45233;-74
2022/11/13 01:24:46;;;;;;;;;62.75;49.25;;;;;;;;5083764;27;46529;-74
2022/11/13 01:27:12;;;;;;;;;56.75;46.75;;;;;;;;5086442;27;45565;-74
2022/11/13 01:29:37;;;;;;;;;53.25;43.00;;;;;;;;5084772;27;45284;-74
2022/11/13 01:32:03;;;;;;;;;57.00;46.00;;;;;;;;5081131;27;45223;-74
2022/11/13 01:34:28;;;;;;;;;49.75;41.50;;;;;;;;5083410;27;45249;-75
2022/11/13 01:36:53;;;;;;;;;59.50;48.00;;;;;;;;5080234;27;45433;-75
2022/11/13 01:39:18;;;;;;;;;70.00;52.50;;;;;;;;5081109;27;45480;-75
2022/11/13 01:41:43;;;;;;;;;66.75;53.25;;;;;;;;5081030;27;45375;-75
2022/11/13 01:44:13;;;;;;;;;64.75;51.75;;;;;;;;5080004;27;47257;-75
2022/11/13 01:46:43;;;;;;;;;68.00;55.00;;;;;;;;5081144;27;45215;-75
2022/11/13 01:49:08;;;;;;;;;70.25;57.00;;;;;;;;5089082;27;45374;-75
2022/11/13 01:51:35;;;;;;;;;79.75;62.75;;;;;;;;5089715;27;45531;-75
2022/11/13 01:54:03;;;;;;;;;80.67;63.00;;;;;;;;5098906;27;46194;-75
2022/11/13 01:56:28;;;;;;;;;87.00;72.33;;;;;;;;5085682;27;45059;-75
2022/11/13 01:58:57;;;;;;;;;82.00;69.00;;;;;;;;5082064;27;45706;-75
2022/11/13 02:01:22;;;;;;;;;81.67;65.33;;;;;;;;5087812;27;45377;-75
2022/11/13 02:03:48;;;;;;;;;84.33;67.67;;;;;;;;5080950;27;45453;-75
2022/11/13 02:06:13;;;;;;;;;86.33;72.33;;;;;;;;5088362;27;45300;-75
2022/11/13 02:08:38;;;;;;;;;84.67;72.33;;;;;;;;5091412;27;45346;-75
2022/11/13 02:11:04;;;;;;;;;84.67;66.67;;;;;;;;5090768;27;46171;-75
2022/11/13 02:13:29;;;;;;;;;86.67;70.67;;;;;;;;5079349;27;48224;-75
2022/11/13 02:15:55;;;;;;;;;86.67;69.67;;;;;;;;5091612;27;45366;-75
2022/11/13 02:18:21;;;;;;;;;80.00;63.75;;;;;;;;5079419;27;45296;-75
2022/11/13 02:21:05;;;;;;;;;81.00;66.00;;;;;;;;5082664;27;45310;-75
2022/11/13 02:23:42;;;;;;;;;80.75;63.25;;;;;;;;5080217;28;46241;-75
2022/11/13 02:26:08;;;;;;;;;78.75;61.00;;;;;;;;5084880;27;44900;-75
2022/11/13 02:28:34;;;;;;;;;72.00;57.25;;;;;;;;5080750;27;45297;-75
2022/11/13 02:31:09;;;;;;;;;73.75;58.00;;;;;;;;5084924;27;45317;-75
2022/11/13 02:33:34;;;;;;;;;69.75;56.50;;;;;;;;5080586;27;45217;-75
2022/11/13 02:35:59;;;;;;;;;85.67;64.00;;;;;;;;5087637;27;45281;-75
2022/11/13 02:38:25;;;;;;;;;71.00;57.00;;;;;;;;5082425;27;45225;-75
2022/11/13 02:40:50;;;;;;;;;67.00;53.00;;;;;;;;5092272;27;46909;-75
2022/11/13 02:43:15;;;;;;;;;69.50;55.25;;;;;;;;5080004;27;45355;-75
2022/11/13 02:45:40;;;;;;;;;71.00;56.25;;;;;;;;5082307;27;45277;-75
2022/11/13 02:48:06;;;;;;;;;71.00;54.25;;;;;;;;5080130;27;45386;-75
2022/11/13 02:50:32;;;;;;;;;66.25;49.75;;;;;;;;5081633;27;45169;-75
2022/11/13 02:52:57;;;;;;;;;62.75;51.25;;;;;;;;5080021;27;45307;-75
2022/11/13 02:55:23;;;;;;;;;61.25;48.75;;;;;;;;5083963;27;45288;-75
2022/11/13 02:57:48;;;;;;;;;61.50;51.00;;;;;;;;5084506;27;45233;-75
2022/11/13 03:00:14;;;;;;;;;60.25;49.00;;;;;;;;5091950;27;45403;-75
2022/11/13 03:02:39;;;;;;;;;64.00;49.25;;;;;;;;5087591;27;47026;-75
2022/11/13 03:05:05;;;;;;;;;54.50;44.00;;;;;;;;5085637;27;45314;-75
2022/11/13 03:07:30;;;;;;;;;57.50;44.75;;;;;;;;5081589;27;45404;-75
2022/11/13 03:09:56;;;;;;;;;57.00;45.00;;;;;;;;5084061;27;45368;-75
2022/11/13 03:12:21;;;;;;;;;54.25;44.75;;;;;;;;5083457;27;46589;-75
2022/11/13 03:14:46;;;;;;;;;61.50;47.75;;;;;;;;5084267;27;46719;-75
2022/11/13 03:17:12;;;;;;;;;56.00;46.75;;;;;;;;5079610;27;45354;-75
2022/11/13 03:19:37;;;;;;;;;54.50;45.75;;;;;;;;5080004;27;45761;-74
2022/11/13 03:22:02;;;;;;;;;58.00;45.75;;;;;;;;5079325;27;45850;-75
2022/11/13 03:24:27;;;;;;;;;56.25;44.75;;;;;;;;5080659;27;45484;-75
2022/11/13 03:26:52;;;;;;;;;56.50;47.75;;;;;;;;5079544;28;45248;-75
2022/11/13 03:29:18;;;;;;;;;59.00;48.25;;;;;;;;5081196;27;45687;-75
2022/11/13 03:31:43;;;;;;;;;58.25;48.00;;;;;;;;5079566;27;46285;-75
2022/11/13 03:34:08;;;;;;;;;59.50;46.25;;;;;;;;5082075;27;45318;-75
2022/11/13 03:36:33;;;;;;;;;53.50;44.25;;;;;;;;5079480;27;45554;-75
2022/11/13 03:38:59;;;;;;;;;61.25;48.00;;;;;;;;5080452;27;45221;-75
2022/11/13 03:41:24;;;;;;;;;60.50;47.75;;;;;;;;5080313;27;46530;-75
2022/11/13 03:43:49;;;;;;;;;55.75;43.75;;;;;;;;5079701;27;45416;-75
2022/11/13 03:46:15;;;;;;;;;59.00;46.75;;;;;;;;5082285;27;45324;-74
2022/11/13 03:48:40;;;;;;;;;55.75;44.50;;;;;;;;5084788;27;45939;-74
2022/11/13 03:51:05;;;;;;;;;55.25;44.25;;;;;;;;5082479;27;45300;-74
2022/11/13 03:53:30;;;;;;;;;54.25;41.00;;;;;;;;5077591;27;45558;-74
2022/11/13 03:55:56;;;;;;;;;57.75;43.50;;;;;;;;5081387;27;45422;-75
2022/11/13 03:58:21;;;;;;;;;47.50;38.75;;;;;;;;5078960;27;46580;-75
2022/11/13 04:00:47;;;;;;;;;53.50;42.75;;;;;;;;5085955;27;45346;-75
2022/11/13 04:03:12;;;;;;;;;51.75;41.50;;;;;;;;5079083;27;45346;-75
2022/11/13 04:05:38;;;;;;;;;49.25;38.50;;;;;;;;5088075;27;45407;-74
2022/11/13 04:08:03;;;;;;;;;53.50;43.25;;;;;;;;5078760;28;45453;-74
2022/11/13 04:10:29;;;;;;;;;56.75;44.50;;;;;;;;5086409;27;44932;-75
2022/11/13 04:12:54;;;;;;;;;52.25;39.50;;;;;;;;5078692;28;45331;-74
2022/11/13 04:15:19;;;;;;;;;56.75;43.50;;;;;;;;5083510;27;45428;-74
2022/11/13 04:17:44;;;;;;;;;54.50;42.50;;;;;;;;5078510;27;45375;-75
2022/11/13 04:20:10;;;;;;;;;52.25;42.00;;;;;;;;5078847;27;45362;-74
2022/11/13 04:22:35;;;;;;;;;53.25;41.00;;;;;;;;5078685;27;45520;-74
2022/11/13 04:25:00;;;;;;;;;56.00;43.50;;;;;;;;5080367;27;45399;-74
2022/11/13 04:27:25;;;;;;;;;47.00;41.00;;;;;;;;5088823;27;45577;-75
2022/11/13 04:29:51;;;;;;;;;50.00;41.50;;;;;;;;5079313;27;45356;-75
2022/11/13 04:32:16;;;;;;;;;57.50;41.00;;;;;;;;5078726;28;45375;-75
2022/11/13 04:34:41;;;;;;;;;49.50;41.00;;;;;;;;5081401;27;45283;-75
2022/11/13 04:37:07;;;;;;;;;48.75;41.00;;;;;;;;5078513;27;45441;-75
2022/11/13 04:39:32;;;;;;;;;52.75;41.50;;;;;;;;5080704;27;46251;-74
2022/11/13 04:44:41;;;;;;;;;46.00;37.25;;;;;;;;5080900;27;45303;-75
2022/11/13 04:47:07;;;;;;;;;28.00;25.25;;;;;;;;5087169;27;45493;-75
2022/11/13 04:49:32;;;;;;;;;36.75;32.00;;;;;;;;5084177;27;45444;-76
2022/11/13 04:51:57;;;;;;;;;36.00;29.00;;;;;;;;5078416;28;45409;-76
2022/11/13 04:54:22;;;;;;;;;34.25;32.25;;;;;;;;5080775;27;45214;-75
2022/11/13 04:56:47;;;;;;;;;29.75;28.50;;;;;;;;5081316;27;45260;-75
2022/11/13 04:59:13;;;;;;;;;28.50;28.50;;;;;;;;5081897;27;45515;-75
2022/11/13 05:01:38;;;;;;;;;32.75;27.75;;;;;;;;5081615;27;45457;-75
2022/11/13 05:04:03;;;;;;;;;26.75;24.00;;;;;;;;5081079;27;45656;-75
2022/11/13 05:06:28;;;;;;;;;24.75;24.00;;;;;;;;5083667;27;45392;-75
2022/11/13 05:08:54;;;;;;;;;37.00;27.75;;;;;;;;5077098;27;46936;-75
2022/11/13 05:11:19;;;;;;;;;28.25;23.75;;;;;;;;5083051;27;45297;-75
2022/11/13 05:13:44;;;;;;;;;31.75;26.50;;;;;;;;5081753;27;45455;-75
2022/11/13 05:16:10;;;;;;;;;31.75;29.25;;;;;;;;5091205;27;46118;-75
2022/11/13 05:18:36;;;;;;;;;31.25;27.50;;;;;;;;5081420;27;47027;-75
2022/11/13 05:21:01;;;;;;;;;22.50;21.25;;;;;;;;5085874;27;45338;-75
2022/11/13 05:23:27;;;;;;;;;32.25;29.50;;;;;;;;5081486;27;45414;-75
2022/11/13 05:25:52;;;;;;;;;28.75;27.25;;;;;;;;5081975;27;44802;-75
2022/11/13 05:28:17;;;;;;;;;32.25;28.00;;;;;;;;5090988;27;45970;-74
2022/11/13 05:30:43;;;;;;;;;31.50;28.00;;;;;;;;5083255;27;45322;-74
2022/11/13 05:33:08;;;;;;;;;30.25;28.75;;;;;;;;5081449;27;45219;-74
2022/11/13 05:35:34;;;;;;;;;28.00;26.75;;;;;;;;5084600;27;45368;-75
2022/11/13 05:38:00;;;;;;;;;26.25;24.75;;;;;;;;5082255;27;46456;-75
2022/11/13 05:40:25;;;;;;;;;28.00;24.25;;;;;;;;5084454;27;45221;-76
2022/11/13 05:42:52;;;;;;;;;26.25;25.50;;;;;;;;5081426;27;45400;-75
2022/11/13 05:45:17;;;;;;;;;32.25;25.25;;;;;;;;5083364;27;45459;-75
2022/11/13 05:47:42;;;;;;;;;32.25;30.25;;;;;;;;5080897;27;45661;-75
2022/11/13 05:50:07;;;;;;;;;42.25;34.25;;;;;;;;5081918;27;45416;-75
2022/11/13 05:52:33;;;;;;;;;34.00;29.75;;;;;;;;5080844;27;45369;-75
2022/11/13 05:54:58;;;;;;;;;35.75;31.25;;;;;;;;5085082;27;45436;-75
2022/11/13 05:57:23;;;;;;;;;28.25;25.00;;;;;;;;5081933;27;46501;-75
2022/11/13 05:59:48;;;;;;;;;30.50;26.25;;;;;;;;5087336;27;45442;-75
2022/11/13 06:02:13;;;;;;;;;37.75;33.25;;;;;;;;5084006;27;45381;-75
2022/11/13 06:04:38;;;;;;;;;28.50;27.00;;;;;;;;5083382;27;45310;-75
2022/11/13 06:07:04;;;;;;;;;28.00;27.50;;;;;;;;5084132;27;47817;-75
2022/11/13 06:09:29;;;;;;;;;29.00;24.50;;;;;;;;5084173;27;45627;-76
2022/11/13 06:11:54;;;;;;;;;27.50;23.00;;;;;;;;5082736;27;45235;-76
2022/11/13 06:14:19;;;;;;;;;30.50;26.00;;;;;;;;5082596;27;45781;-75
2022/11/13 06:16:44;;;;;;;;;32.75;29.00;;;;;;;;5085054;27;45201;-76
2022/11/13 06:19:10;;;;;;;;;27.75;24.75;;;;;;;;5092265;27;45413;-76
2022/11/13 06:21:36;;;;;;;;;31.50;25.75;;;;;;;;5081637;27;45241;-76
2022/11/13 06:24:01;;;;;;;;;32.00;29.75;;;;;;;;5092232;27;45909;-75
2022/11/13 06:26:28;;;;;;;;;29.00;25.00;;;;;;;;5079930;27;45243;-76
2022/11/13 06:28:53;;;;;;;;;32.75;26.50;;;;;;;;5087335;27;45658;-76
2022/11/13 06:31:20;;;;;;;;;25.50;24.25;;;;;;;;5085817;27;45251;-76
2022/11/13 06:33:45;;;;;;;;;28.75;25.00;;;;;;;;5091973;27;45448;-76
2022/11/13 06:36:12;;;;;;;;;24.75;24.75;;;;;;;;5080662;27;45407;-76
2022/11/13 06:38:38;;;;;;;;;27.25;23.75;;;;;;;;5087458;27;45510;-76
2022/11/13 06:41:04;;;;;;;;;28.25;25.00;;;;;;;;5082910;27;45474;-75
2022/11/13 06:43:29;;;;;;;;;22.00;21.25;;;;;;;;5082742;27;45882;-74
2022/11/13 06:45:55;;;;;;;;;29.25;26.25;;;;;;;;5087890;27;45404;-75
2022/11/13 06:48:20;;;;;;;;;22.00;22.00;;;;;;;;5089858;27;45274;-75
2022/11/13 06:50:46;;;;;;;;;28.50;25.00;;;;;;;;5083372;27;45403;-75
2022/11/13 06:53:11;;;;;;;;;24.75;23.75;;;;;;;;5084347;27;46055;-75
2022/11/13 06:55:41;;;;;;;;;24.00;24.00;;;;;;;;5086971;27;46596;-75
2022/11/13 06:58:06;;;;;;;;;21.00;21.00;;;;;;;;5079801;27;45476;-75
2022/11/13 07:00:31;;;;;;;;;16.75;15.25;;;;;;;;5083642;27;45377;-75
2022/11/13 07:02:57;;;;;;;;;32.00;25.25;;;;;;;;5077995;27;46243;-75
2022/11/13 07:05:22;;;;;;;;;24.75;23.25;;;;;;;;5078032;27;46349;-73
2022/11/13 07:07:47;;;;;;;;;27.50;25.50;;;;;;;;5078972;27;45437;-73
2022/11/13 07:10:12;;;;;;;;;30.75;26.00;;;;;;;;5078432;27;45691;-75
2022/11/13 07:12:37;;;;;;;;;24.50;19.50;;;;;;;;5078906;27;45195;-76
2022/11/13 07:15:03;;;;;;;;;23.50;22.25;;;;;;;;5078617;27;46788;-77
2022/11/13 07:17:28;;;;;;;;;27.25;23.25;;;;;;;;5086783;27;45294;-74
2022/11/13 07:19:53;;;;;;;;;29.00;27.25;;;;;;;;5085523;27;45589;-77
2022/11/13 07:22:18;;;;;;;;;29.75;24.25;;;;;;;;5078694;27;45303;-74
2022/11/13 07:24:44;;;;;;;;;32.00;32.00;;;;;;;;5078460;27;45909;-75
2022/11/13 07:27:09;;;;;;;;;34.50;32.50;;;;;;;;5087954;27;45259;-75
2022/11/13 07:29:35;;;;;;;;;29.50;27.00;;;;;;;;5085716;27;45257;-75
2022/11/13 07:32:00;;;;;;;;;30.25;29.00;;;;;;;;5078959;27;45205;-75
2022/11/13 07:34:25;;;;;;;;;37.75;33.00;;;;;;;;5079911;27;46325;-74
2022/11/13 07:36:50;;;;;;;;;34.25;33.25;;;;;;;;5079153;27;46271;-74
2022/11/13 07:39:16;;;;;;;;;36.25;31.75;;;;;;;;5080029;27;45815;-74
2022/11/13 07:41:41;;;;;;;;;31.75;30.50;;;;;;;;5078099;27;45400;-74
2022/11/13 07:44:06;;;;;;;;;33.25;28.25;;;;;;;;5078410;27;45609;-74
2022/11/13 07:46:31;;;;;;;;;36.25;31.75;;;;;;;;5078481;27;45480;-74
2022/11/13 07:48:57;;;;;;;;;31.75;29.50;;;;;;;;5077490;27;45615;-74
2022/11/13 07:51:22;;;;;;;;;35.00;28.75;;;;;;;;5085537;27;45583;-74
2022/11/13 07:53:48;;;;;;;;;34.50;30.75;;;;;;;;5082468;27;45669;-74
2022/11/13 07:56:13;;;;;;;;;34.75;29.75;;;;;;;;5082570;27;45448;-74
2022/11/13 07:58:38;;;;;;;;;37.50;30.25;;;;;;;;5079660;27;45381;-74
2022/11/13 08:01:04;;;;;;;;;41.25;31.50;;;;;;;;5080538;27;45485;-74
2022/11/13 08:03:30;;;;;;;;;33.25;31.00;;;;;;;;5078395;27;45704;-74
2022/11/13 08:05:59;;;;;;;;;37.25;31.25;;;;;;;;5082649;27;45470;-74
2022/11/13 08:08:24;;;;;;;;;36.25;33.25;;;;;;;;5078051;27;45628;-74
2022/11/13 08:10:49;;;;;;;;;32.25;31.50;;;;;;;;5079765;27;45591;-74
2022/11/13 08:13:14;;;;;;;;;39.75;37.00;;;;;;;;5081957;27;47005;-74
2022/11/13 08:15:39;;;;;;;;;37.00;32.75;;;;;;;;5080407;27;45355;-74
2022/11/13 08:18:05;;;;;;;;;35.50;33.50;;;;;;;;5077890;27;45334;-74
2022/11/13 08:20:30;;;;;;;;;38.75;34.50;;;;;;;;5080482;27;45468;-74
2022/11/13 08:22:57;;;;;;;;;35.50;31.25;;;;;;;;5077636;27;45985;-74
2022/11/13 08:25:22;;;;;;;;;39.00;35.25;;;;;;;;5084425;27;45296;-75
2022/11/13 08:27:47;;;;;;;;;26.50;24.75;;;;;;;;5078263;27;45258;-74
2022/11/13 08:30:13;;;;;;;;;32.50;32.25;;;;;;;;5079559;27;47136;-75
2022/11/13 08:32:38;;;;;;;;;36.75;32.00;;;;;;;;5078227;27;45252;-73
2022/11/13 08:35:04;;;;;;;;;39.00;32.00;;;;;;;;5079186;27;45617;-73
2022/11/13 08:37:29;;;;;;;;;37.75;36.25;;;;;;;;5078375;27;45283;-74
2022/11/13 08:39:54;;;;;;;;;36.00;30.25;;;;;;;;5080389;27;45461;-74
2022/11/13 08:42:20;;;;;;;;;39.25;35.00;;;;;;;;5078127;28;45584;-74
2022/11/13 08:44:45;;;;;;;;;32.00;32.00;;;;;;;;5081054;27;45370;-76
2022/11/13 08:47:10;;;;;;;;;44.00;38.25;;;;;;;;5078781;27;45397;-74
2022/11/13 08:49:35;;;;;;;;;31.75;29.00;;;;;;;;5084569;27;45341;-74
2022/11/13 08:52:00;;;;;;;;;33.75;32.75;;;;;;;;5091721;27;48660;-74
2022/11/13 08:54:26;;;;;;;;;39.00;34.25;;;;;;;;5091676;27;45349;-74
2022/11/13 08:56:51;;;;;;;;;33.00;32.75;;;;;;;;5086771;27;45292;-74
2022/11/13 08:59:16;;;;;;;;;40.00;37.00;;;;;;;;5083987;27;44971;-74
2022/11/13 09:01:41;;;;;;;;;40.25;34.00;;;;;;;;5081379;27;45371;-74
2022/11/13 09:04:07;;;;;;;;;42.75;36.00;;;;;;;;5083311;27;45311;-76
2022/11/13 09:06:32;;;;;;;;;49.00;40.50;;;;;;;;5081342;27;45429;-76
2022/11/13 09:08:58;;;;;;;;;46.00;40.00;;;;;;;;5081664;27;45552;-73
2022/11/13 09:11:26;;;;;;;;;41.50;34.75;;;;;;;;5082951;27;47823;-74
2022/11/13 09:13:51;;;;;;;;;40.50;36.75;;;;;;;;5080181;27;45399;-74
2022/11/13 09:16:17;;;;;;;;;45.00;36.25;;;;;;;;5083383;27;45341;-75
2022/11/13 09:18:42;;;;;;;;;37.00;32.00;;;;;;;;5081135;27;45264;-74
2022/11/13 09:21:07;;;;;;;;;36.50;31.75;;;;;;;;5083295;27;45257;-74
2022/11/13 09:23:33;;;;;;;;;33.50;33.50;;;;;;;;5080733;27;45157;-75
2022/11/13 09:26:00;;;;;;;;;45.50;35.25;;;;;;;;5083494;27;45252;-74
2022/11/13 09:28:25;;;;;;;;;39.75;35.50;;;;;;;;5081008;27;45273;-74
2022/11/13 09:30:50;;;;;;;;;38.25;35.75;;;;;;;;5088385;27;45527;-74
2022/11/13 09:33:16;;;;;;;;;37.75;32.75;;;;;;;;5081102;27;45284;-74
2022/11/13 09:35:42;;;;;;;;;42.00;36.25;;;;;;;;5092353;27;45352;-73
2022/11/13 09:38:11;;;;;;;;;39.25;34.25;;;;;;;;5080354;27;45680;-76
2022/11/13 09:40:42;;;;;;;;;38.00;34.50;;;;;;;;5082666;27;46254;-77
2022/11/13 09:43:18;;;;;;;;;38.75;33.75;;;;;;;;5080611;27;45469;-77
2022/11/13 09:45:43;;;;;;;;;33.25;31.25;;;;;;;;5088766;27;45421;-76
2022/11/13 09:48:08;;;;;;;;;40.00;36.50;;;;;;;;5081423;27;45363;-77
2022/11/13 09:50:33;;;;;;;;;40.50;35.25;;;;;;;;5087701;27;45389;-77
2022/11/13 09:52:59;;;;;;;;;36.50;32.50;;;;;;;;5095889;27;45355;-76
2022/11/13 09:55:27;;;;;;;;;39.00;35.00;;;;;;;;5083096;27;45498;-76
2022/11/13 09:58:01;;;;;;;;;39.25;34.50;;;;;;;;5081012;27;45520;-76
2022/11/13 10:00:28;;;;;;;;;34.75;31.75;;;;;;;;5082858;27;45338;-76
2022/11/13 10:03:08;;;;;;;;;40.25;35.00;;;;;;;;5080629;27;45279;-76
2022/11/13 10:05:52;;;;;;;;;46.75;35.00;;;;;;;;5083215;27;45720;-76
2022/11/13 10:08:17;;;;;;;;;34.25;31.50;;;;;;;;5080143;27;45417;-76
2022/11/13 10:10:42;;;;;;;;;45.75;35.50;;;;;;;;5083590;27;45234;-75
2022/11/13 10:13:13;;;;;;;;;41.25;34.00;;;;;;;;5080064;27;45517;-75
2022/11/13 10:15:39;;;;;;;;;38.25;35.25;;;;;;;;5086162;27;45717;-75
2022/11/13 10:18:10;;;;;;;;;34.00;32.75;;;;;;;;5080013;27;45398;-76
2022/11/13 10:20:38;;;;;;;;;43.00;34.25;;;;;;;;5081965;27;46138;-76
2022/11/13 10:23:12;;;;;;;;;39.50;34.00;;;;;;;;5079960;28;45522;-76
2022/11/13 10:25:40;;;;;;;;;42.25;35.75;;;;;;;;5081650;27;45359;-76
2022/11/13 10:28:19;;;;;;;;;38.00;34.75;;;;;;;;5079406;27;45299;-76
2022/11/13 10:30:45;;;;;;;;;36.75;33.25;;;;;;;;5086649;27;47342;-76
2022/11/13 10:33:11;;;;;;;;;44.25;37.50;;;;;;;;5079438;27;45227;-75
2022/11/13 10:35:37;;;;;;;;;29.00;26.50;;;;;;;;5082943;27;45212;-75
2022/11/13 10:38:02;;;;;;;;;38.25;34.25;;;;;;;;5079139;27;45314;-76
2022/11/13 10:40:32;;;;;;;;;36.25;32.25;;;;;;;;5081484;27;46017;-74
2022/11/13 10:43:13;;;;;;;;;35.25;30.75;;;;;;;;5079384;27;45402;-75
2022/11/13 10:45:39;;;;;;;;;38.75;32.75;;;;;;;;5089596;27;47209;-77
2022/11/13 10:48:04;;;;;;;;;31.00;29.50;;;;;;;;5088570;27;45793;-75
2022/11/13 10:50:31;;;;;;;;;30.00;28.50;;;;;;;;5086425;27;45514;-76
2022/11/13 10:52:56;;;;;;;;;23.50;23.50;;;;;;;;5095008;27;45461;-75
2022/11/13 10:55:37;;;;;;;;;35.50;31.00;;;;;;;;5081662;27;45394;-76
2022/11/13 10:58:09;;;;;;;;;35.00;32.50;;;;;;;;5080227;27;45489;-75
2022/11/13 11:00:37;;;;;;;;;33.50;30.25;;;;;;;;5081599;27;45392;-76
2022/11/13 11:03:06;;;;;;;;;28.25;26.50;;;;;;;;5079362;27;45288;-76
2022/11/13 11:05:31;;;;;;;;;35.50;33.00;;;;;;;;5081926;27;45215;-75
2022/11/13 11:07:57;;;;;;;;;35.50;31.50;;;;;;;;5079038;27;45454;-76
2022/11/13 11:10:28;;;;;;;;;37.00;32.75;;;;;;;;5081663;27;45451;-76
2022/11/13 11:12:54;;;;;;;;;39.00;33.75;;;;;;;;5082196;27;45641;-76
2022/11/13 11:15:19;;;;;;;;;41.50;36.00;;;;;;;;5081302;27;45315;-77
2022/11/13 11:17:48;;;;;;;;;40.25;34.25;;;;;;;;5079053;27;45161;-75
2022/11/13 11:20:13;;;;;;;;;35.50;31.50;;;;;;;;5081226;27;45847;-76
2022/11/13 11:22:39;;;;;;;;;36.50;33.50;;;;;;;;5079006;27;45277;-76
2022/11/13 11:25:07;;;;;;;;;38.00;34.50;;;;;;;;5081654;27;45416;-75
2022/11/13 11:27:38;;;;;;;;;38.75;33.50;;;;;;;;5078781;27;44902;-75
2022/11/13 11:30:04;;;;;;;;;37.25;33.75;;;;;;;;5081473;27;45469;-75
2022/11/13 11:32:35;;;;;;;;;41.00;34.50;;;;;;;;5078568;27;45449;-75
2022/11/13 11:35:13;;;;;;;;;34.75;33.25;;;;;;;;5081913;27;45559;-75
2022/11/13 11:37:45;;;;;;;;;42.50;35.00;;;;;;;;5076877;27;45510;-75
2022/11/13 11:40:28;;;;;;;;;34.75;33.00;;;;;;;;5078183;27;46252;-76
2022/11/13 11:43:08;;;;;;;;;34.00;31.25;;;;;;;;5079642;27;45289;-75
2022/11/13 11:45:44;;;;;;;;;34.25;33.00;;;;;;;;5086857;27;45403;-73
2022/11/13 11:48:20;;;;;;;;;34.25;31.00;;;;;;;;5091303;27;45465;-75
2022/11/13 11:50:45;;;;;;;;;34.50;30.50;;;;;;;;5087289;27;45382;-75
2022/11/13 11:53:30;;;;;;;;;39.25;33.00;;;;;;;;5095690;27;45601;-74
2022/11/13 11:55:55;;;;;;;;;34.25;32.00;;;;;;;;5081208;27;45266;-74
2022/11/13 11:58:32;;;;;;;;;34.50;32.50;;;;;;;;5080513;27;46490;-76
2022/11/13 12:01:09;;;;;;;;;42.25;34.75;;;;;;;;5081100;27;45409;-76
2022/11/13 12:03:46;;;;;;;;;38.50;33.50;;;;;;;;5077440;27;45766;-74
2022/11/13 12:06:11;;;;;;;;;34.50;31.00;;;;;;;;5086957;27;44790;-75
2022/11/13 12:08:39;;;;;;;;;36.75;32.75;;;;;;;;5078448;27;45326;-76
2022/11/13 12:11:05;;;;;;;;;38.50;34.00;;;;;;;;5080875;27;45674;-76
2022/11/13 12:13:32;;;;;;;;;36.25;33.50;;;;;;;;5078809;27;45292;-76
2022/11/13 12:16:00;;;;;;;;;38.75;33.50;;;;;;;;5083927;27;45463;-75
2022/11/13 12:18:35;;;;;;;;;42.75;36.00;;;;;;;;5078351;27;45502;-75
2022/11/13 12:21:09;;;;;;;;;39.50;33.00;;;;;;;;5082851;27;46878;-75
2022/11/13 12:23:34;;;;;;;;;42.75;35.75;;;;;;;;5081665;27;45335;-75
2022/11/13 12:26:03;;;;;;;;;41.00;35.00;;;;;;;;5084194;27;45357;-75
2022/11/13 12:28:41;;;;;;;;;37.25;34.00;;;;;;;;5082113;27;45597;-75
2022/11/13 12:31:09;;;;;;;;;43.75;35.75;;;;;;;;5083822;27;45704;-76
2022/11/13 12:33:53;;;;;;;;;34.50;31.25;;;;;;;;5080626;27;45246;-76
2022/11/13 12:36:19;;;;;;;;;39.00;33.25;;;;;;;;5083934;27;45277;-76
2022/11/13 12:38:48;;;;;;;;;39.50;34.00;;;;;;;;5081953;27;45296;-76
2022/11/13 12:41:28;;;;;;;;;38.50;34.25;;;;;;;;5087335;27;47689;-77
2022/11/13 12:44:16;;;;;;;;;42.50;34.50;;;;;;;;5081722;27;45176;-77
2022/11/13 12:46:42;;;;;;;;;44.50;36.75;;;;;;;;5086224;27;45380;-77
2022/11/13 12:49:23;;;;;;;;;36.50;30.75;;;;;;;;5081340;27;45504;-77
2022/11/13 12:51:53;;;;;;;;;34.50;30.75;;;;;;;;5096898;27;46974;-76
2022/11/13 12:54:23;;;;;;;;;39.50;33.00;;;;;;;;5091644;27;44900;-76
2022/11/13 12:56:48;;;;;;;;;46.00;37.50;;;;;;;;5092675;27;44804;-76
2022/11/13 12:59:17;;;;;;;;;45.25;37.25;;;;;;;;5093738;27;45315;-75
2022/11/13 13:01:45;;;;;;;;;42.50;36.50;;;;;;;;5084288;27;48428;-76
2022/11/13 13:04:10;;;;;;;;;43.25;35.50;;;;;;;;5084153;27;45319;-76
2022/11/13 13:06:47;;;;;;;;;40.60;35.80;;;;;;;;5086192;27;45379;-76
2022/11/13 13:09:25;;;;;;;;;40.75;36.00;;;;;;;;5080713;27;45960;-76
2022/11/13 13:11:58;;;;;;;;;43.00;35.75;;;;;;;;5082454;27;45473;-76
2022/11/13 13:14:23;;;;;;;;;48.50;37.00;;;;;;;;5092016;27;45366;-75
2022/11/13 13:16:48;;;;;;;;;32.25;31.00;;;;;;;;5083634;27;45303;-76
2022/11/13 13:19:24;;;;;;;;;43.25;37.00;;;;;;;;5082675;27;45354;-76
2022/11/13 13:21:49;;;;;;;;;37.00;33.00;;;;;;;;5079465;27;47426;-76
2022/11/13 13:24:34;;;;;;;;;43.00;36.00;;;;;;;;5082533;27;45427;-76
2022/11/13 13:26:59;;;;;;;;;41.25;34.50;;;;;;;;5088729;27;45451;-76
2022/11/13 13:29:25;;;;;;;;;48.75;38.75;;;;;;;;5087455;27;45842;-77
2022/11/13 13:32:09;;;;;;;;;49.50;40.25;;;;;;;;5087549;27;45393;-76
2022/11/13 13:34:53;;;;;;;;;42.50;35.75;;;;;;;;5085750;27;45355;-76
2022/11/13 13:37:28;;;;;;;;;40.00;35.50;;;;;;;;5080451;27;46548;-76
2022/11/13 13:40:29;;;;;;;;;39.75;34.25;;;;;;;;5080172;27;45423;-76
2022/11/13 13:43:10;;;;;;;;;45.00;36.50;;;;;;;;5032767;28;45349;-76
2022/11/13 13:45:41;;;;;;;;;39.75;33.00;;;;;;;;5077475;27;45572;-76
2022/11/13 13:48:11;;;;;;;;;46.25;37.00;;;;;;;;5080783;27;45459;-76
2022/11/13 13:50:41;;;;;;;;;40.75;34.50;;;;;;;;5088172;27;45339;-76
2022/11/13 13:53:08;;;;;;;;;43.50;36.75;;;;;;;;5081748;27;45375;-76
2022/11/13 13:55:37;;;;;;;;;39.00;33.25;;;;;;;;5088688;27;45157;-75
2022/11/13 13:58:08;;;;;;;;;39.75;35.25;;;;;;;;5088720;27;45602;-76
2022/11/13 14:00:34;;;;;;;;;45.25;34.75;;;;;;;;5082997;27;45323;-76
2022/11/13 14:03:00;;;;;;;;;36.00;32.00;;;;;;;;5080808;27;45245;-75
2022/11/13 14:05:25;;;;;;;;;38.75;32.00;;;;;;;;5088484;27;45258;-75
2022/11/13 14:07:50;;;;;;;;;37.50;34.25;;;;;;;;5080368;27;45507;-75
2022/11/13 14:10:17;;;;;;;;;36.25;33.25;;;;;;;;5082772;27;45359;-75
2022/11/13 14:12:43;;;;;;;;;44.50;35.00;;;;;;;;5080537;27;45408;-76
2022/11/13 14:15:21;;;;;;;;;37.25;32.50;;;;;;;;5087370;27;45528;-75
2022/11/13 14:17:46;;;;;;;;;43.75;35.75;;;;;;;;5095054;27;45155;-76
2022/11/13 14:20:11;;;;;;;;;42.75;34.50;;;;;;;;5086629;27;45539;-75